sensor_id;sensor_type;location;lat;lon;timestamp;P1;durP1;ratioP1;P2;durP2;ratioP2
41568;SDS011;27283;52.504;13.358;2023-03-23T00:01:27;6.40;;;2.60;;
41568;SDS011;27283;52.504;13.358;2023-03-23T00:04:06;8.13;;;2.60;;
41568;SDS011;27283;52.504;13.358;2023-03-23T00:06:41;7.40;;;3.00;;
41568;SDS011;27283;52.504;13.358;2023-03-23T00:09:14;9.75;;;2.90;;
41568;SDS011;27283;52.504;13.358;2023-03-23T00:11:51;5.88;;;3.05;;
41568;SDS011;27283;52.504;13.358;2023-03-23T00:14:34;6.03;;;2.63;;
41568;SDS011;27283;52.504;13.358;2023-03-23T00:17:12;5.30;;;2.80;;
41568;SDS011;27283;52.504;13.358;2023-03-23T00:19:44;5.72;;;2.85;;
41568;SDS011;27283;52.504;13.358;2023-03-23T00:22:32;8.88;;;3.22;;
41568;SDS011;27283;52.504;13.358;2023-03-23T00:25:06;8.85;;;2.80;;
41568;SDS011;27283;52.504;13.358;2023-03-23T00:27:39;7.00;;;2.80;;
41568;SDS011;27283;52.504;13.358;2023-03-23T00:30:13;5.97;;;2.85;;
41568;SDS011;27283;52.504;13.358;2023-03-23T00:32:48;6.10;;;2.83;;
41568;SDS011;27283;52.504;13.358;2023-03-23T00:35:21;6.38;;;2.67;;
41568;SDS011;27283;52.504;13.358;2023-03-23T00:37:53;8.13;;;2.42;;
41568;SDS011;27283;52.504;13.358;2023-03-23T00:40:27;5.15;;;2.88;;
41568;SDS011;27283;52.504;13.358;2023-03-23T00:42:59;5.50;;;2.80;;
41568;SDS011;27283;52.504;13.358;2023-03-23T00:45:33;6.88;;;3.00;;
41568;SDS011;27283;52.504;13.358;2023-03-23T00:48:08;5.82;;;2.83;;
41568;SDS011;27283;52.504;13.358;2023-03-23T00:50:41;6.38;;;2.70;;
41568;SDS011;27283;52.504;13.358;2023-03-23T00:53:13;7.20;;;2.92;;
41568;SDS011;27283;52.504;13.358;2023-03-23T00:55:47;5.88;;;2.80;;
41568;SDS011;27283;52.504;13.358;2023-03-23T00:58:19;6.88;;;3.10;;
41568;SDS011;27283;52.504;13.358;2023-03-23T01:00:52;6.18;;;3.00;;
41568;SDS011;27283;52.504;13.358;2023-03-23T01:03:28;5.93;;;2.80;;
41568;SDS011;27283;52.504;13.358;2023-03-23T01:06:03;9.80;;;3.28;;
41568;SDS011;27283;52.504;13.358;2023-03-23T01:08:41;9.02;;;3.28;;
41568;SDS011;27283;52.504;13.358;2023-03-23T01:11:17;5.68;;;2.60;;
41568;SDS011;27283;52.504;13.358;2023-03-23T01:13:49;6.10;;;2.78;;
41568;SDS011;27283;52.504;13.358;2023-03-23T01:16:22;4.72;;;2.80;;
41568;SDS011;27283;52.504;13.358;2023-03-23T01:18:57;7.07;;;2.95;;
41568;SDS011;27283;52.504;13.358;2023-03-23T01:21:29;6.53;;;2.78;;
41568;SDS011;27283;52.504;13.358;2023-03-23T01:24:02;6.72;;;2.95;;
41568;SDS011;27283;52.504;13.358;2023-03-23T01:26:35;4.50;;;2.50;;
41568;SDS011;27283;52.504;13.358;2023-03-23T01:29:07;5.88;;;2.60;;
41568;SDS011;27283;52.504;13.358;2023-03-23T01:31:39;6.40;;;2.67;;
41568;SDS011;27283;52.504;13.358;2023-03-23T01:34:14;5.10;;;3.00;;
41568;SDS011;27283;52.504;13.358;2023-03-23T01:36:47;7.90;;;2.83;;
41568;SDS011;27283;52.504;13.358;2023-03-23T01:39:19;8.25;;;3.33;;
41568;SDS011;27283;52.504;13.358;2023-03-23T01:41:51;8.52;;;2.90;;
41568;SDS011;27283;52.504;13.358;2023-03-23T01:47:38;8.23;;;3.25;;
41568;SDS011;27283;52.504;13.358;2023-03-23T01:50:13;5.13;;;2.53;;
41568;SDS011;27283;52.504;13.358;2023-03-23T01:52:46;5.07;;;3.00;;
41568;SDS011;27283;52.504;13.358;2023-03-23T01:55:19;6.43;;;3.10;;
41568;SDS011;27283;52.504;13.358;2023-03-23T01:57:53;5.95;;;2.90;;
41568;SDS011;27283;52.504;13.358;2023-03-23T02:00:26;4.25;;;2.63;;
41568;SDS011;27283;52.504;13.358;2023-03-23T02:02:59;6.03;;;3.10;;
41568;SDS011;27283;52.504;13.358;2023-03-23T02:05:36;5.45;;;2.88;;
41568;SDS011;27283;52.504;13.358;2023-03-23T02:08:11;7.10;;;3.05;;
41568;SDS011;27283;52.504;13.358;2023-03-23T02:10:46;6.65;;;3.20;;
41568;SDS011;27283;52.504;13.358;2023-03-23T02:13:19;6.65;;;2.70;;
41568;SDS011;27283;52.504;13.358;2023-03-23T02:15:55;5.28;;;2.88;;
41568;SDS011;27283;52.504;13.358;2023-03-23T02:18:39;5.03;;;2.85;;
41568;SDS011;27283;52.504;13.358;2023-03-23T02:21:25;6.82;;;2.53;;
41568;SDS011;27283;52.504;13.358;2023-03-23T02:24:19;7.50;;;3.30;;
41568;SDS011;27283;52.504;13.358;2023-03-23T02:27:16;6.70;;;2.67;;
41568;SDS011;27283;52.504;13.358;2023-03-23T02:30:11;3.85;;;2.55;;
41568;SDS011;27283;52.504;13.358;2023-03-23T02:36:01;3.72;;;2.40;;
41568;SDS011;27283;52.504;13.358;2023-03-23T02:38:40;4.30;;;2.70;;
41568;SDS011;27283;52.504;13.358;2023-03-23T02:41:20;6.57;;;2.72;;
41568;SDS011;27283;52.504;13.358;2023-03-23T02:43:56;5.55;;;2.53;;
41568;SDS011;27283;52.504;13.358;2023-03-23T02:46:30;5.75;;;2.58;;
41568;SDS011;27283;52.504;13.358;2023-03-23T02:49:04;5.03;;;2.50;;
41568;SDS011;27283;52.504;13.358;2023-03-23T02:51:43;5.90;;;2.80;;
41568;SDS011;27283;52.504;13.358;2023-03-23T02:54:18;3.92;;;2.33;;
41568;SDS011;27283;52.504;13.358;2023-03-23T02:56:53;4.40;;;2.47;;
41568;SDS011;27283;52.504;13.358;2023-03-23T02:59:27;6.30;;;2.88;;
41568;SDS011;27283;52.504;13.358;2023-03-23T03:02:05;4.40;;;2.72;;
41568;SDS011;27283;52.504;13.358;2023-03-23T03:04:40;5.03;;;2.80;;
41568;SDS011;27283;52.504;13.358;2023-03-23T03:10:28;4.35;;;2.70;;
41568;SDS011;27283;52.504;13.358;2023-03-23T03:13:07;4.20;;;2.90;;
41568;SDS011;27283;52.504;13.358;2023-03-23T03:15:45;4.85;;;2.80;;
41568;SDS011;27283;52.504;13.358;2023-03-23T03:18:25;5.47;;;2.78;;
41568;SDS011;27283;52.504;13.358;2023-03-23T03:21:01;5.82;;;2.50;;
41568;SDS011;27283;52.504;13.358;2023-03-23T03:23:42;4.53;;;2.50;;
41568;SDS011;27283;52.504;13.358;2023-03-23T03:26:17;3.95;;;2.60;;
41568;SDS011;27283;52.504;13.358;2023-03-23T03:28:55;4.15;;;2.58;;
41568;SDS011;27283;52.504;13.358;2023-03-23T03:31:29;5.30;;;2.70;;
41568;SDS011;27283;52.504;13.358;2023-03-23T03:34:06;4.43;;;2.50;;
41568;SDS011;27283;52.504;13.358;2023-03-23T03:36:38;4.10;;;2.28;;
41568;SDS011;27283;52.504;13.358;2023-03-23T03:39:15;4.32;;;2.58;;
41568;SDS011;27283;52.504;13.358;2023-03-23T03:41:48;5.57;;;2.53;;
41568;SDS011;27283;52.504;13.358;2023-03-23T03:44:24;5.43;;;2.55;;
41568;SDS011;27283;52.504;13.358;2023-03-23T03:46:56;5.82;;;2.78;;
41568;SDS011;27283;52.504;13.358;2023-03-23T03:49:28;4.63;;;2.78;;
41568;SDS011;27283;52.504;13.358;2023-03-23T03:52:00;4.47;;;2.70;;
41568;SDS011;27283;52.504;13.358;2023-03-23T03:54:36;6.35;;;2.70;;
41568;SDS011;27283;52.504;13.358;2023-03-23T03:57:08;6.63;;;2.70;;
41568;SDS011;27283;52.504;13.358;2023-03-23T03:59:41;4.32;;;2.45;;
41568;SDS011;27283;52.504;13.358;2023-03-23T04:02:13;3.60;;;2.80;;
41568;SDS011;27283;52.504;13.358;2023-03-23T04:04:51;8.02;;;3.22;;
41568;SDS011;27283;52.504;13.358;2023-03-23T04:07:23;4.85;;;2.90;;
41568;SDS011;27283;52.504;13.358;2023-03-23T04:10:01;3.95;;;2.88;;
41568;SDS011;27283;52.504;13.358;2023-03-23T04:12:34;6.25;;;2.83;;
41568;SDS011;27283;52.504;13.358;2023-03-23T04:15:07;5.22;;;3.10;;
41568;SDS011;27283;52.504;13.358;2023-03-23T04:17:40;7.95;;;2.95;;
41568;SDS011;27283;52.504;13.358;2023-03-23T04:20:12;5.68;;;2.95;;
41568;SDS011;27283;52.504;13.358;2023-03-23T04:22:59;5.45;;;2.90;;
41568;SDS011;27283;52.504;13.358;2023-03-23T04:25:34;6.85;;;2.78;;
41568;SDS011;27283;52.504;13.358;2023-03-23T04:28:09;5.40;;;3.00;;
41568;SDS011;27283;52.504;13.358;2023-03-23T04:30:42;4.97;;;2.80;;
41568;SDS011;27283;52.504;13.358;2023-03-23T04:33:14;7.47;;;2.92;;
41568;SDS011;27283;52.504;13.358;2023-03-23T04:35:51;6.75;;;3.10;;
41568;SDS011;27283;52.504;13.358;2023-03-23T04:38:24;4.78;;;3.05;;
41568;SDS011;27283;52.504;13.358;2023-03-23T04:41:00;7.10;;;3.00;;
41568;SDS011;27283;52.504;13.358;2023-03-23T04:43:32;6.25;;;3.28;;
41568;SDS011;27283;52.504;13.358;2023-03-23T04:46:10;7.35;;;3.50;;
41568;SDS011;27283;52.504;13.358;2023-03-23T04:48:46;5.25;;;3.35;;
41568;SDS011;27283;52.504;13.358;2023-03-23T04:51:19;7.30;;;3.60;;
41568;SDS011;27283;52.504;13.358;2023-03-23T04:53:51;6.45;;;3.33;;
41568;SDS011;27283;52.504;13.358;2023-03-23T04:56:27;6.15;;;3.88;;
41568;SDS011;27283;52.504;13.358;2023-03-23T04:58:59;8.50;;;4.10;;
41568;SDS011;27283;52.504;13.358;2023-03-23T05:01:31;7.60;;;3.70;;
41568;SDS011;27283;52.504;13.358;2023-03-23T05:04:07;6.68;;;3.65;;
41568;SDS011;27283;52.504;13.358;2023-03-23T05:06:42;8.68;;;4.05;;
41568;SDS011;27283;52.504;13.358;2023-03-23T05:09:15;8.02;;;3.95;;
41568;SDS011;27283;52.504;13.358;2023-03-23T05:11:51;7.00;;;3.50;;
41568;SDS011;27283;52.504;13.358;2023-03-23T05:14:23;6.07;;;3.60;;
41568;SDS011;27283;52.504;13.358;2023-03-23T05:16:55;6.80;;;3.78;;
41568;SDS011;27283;52.504;13.358;2023-03-23T05:19:27;6.97;;;3.80;;
41568;SDS011;27283;52.504;13.358;2023-03-23T05:21:59;7.07;;;3.85;;
41568;SDS011;27283;52.504;13.358;2023-03-23T05:24:32;5.88;;;3.20;;
41568;SDS011;27283;52.504;13.358;2023-03-23T05:27:07;6.43;;;3.42;;
41568;SDS011;27283;52.504;13.358;2023-03-23T05:29:39;5.22;;;3.55;;
41568;SDS011;27283;52.504;13.358;2023-03-23T05:32:12;6.93;;;4.00;;
41568;SDS011;27283;52.504;13.358;2023-03-23T05:34:43;7.18;;;3.83;;
41568;SDS011;27283;52.504;13.358;2023-03-23T05:37:17;7.47;;;3.92;;
41568;SDS011;27283;52.504;13.358;2023-03-23T05:39:49;8.82;;;4.30;;
41568;SDS011;27283;52.504;13.358;2023-03-23T05:42:25;8.43;;;4.00;;
41568;SDS011;27283;52.504;13.358;2023-03-23T05:45:33;7.22;;;3.95;;
41568;SDS011;27283;52.504;13.358;2023-03-23T05:48:05;6.00;;;3.40;;
41568;SDS011;27283;52.504;13.358;2023-03-23T05:50:37;6.60;;;3.83;;
41568;SDS011;27283;52.504;13.358;2023-03-23T05:53:09;7.50;;;3.63;;
41568;SDS011;27283;52.504;13.358;2023-03-23T05:55:43;6.35;;;3.90;;
41568;SDS011;27283;52.504;13.358;2023-03-23T05:58:23;4.90;;;3.35;;
41568;SDS011;27283;52.504;13.358;2023-03-23T06:00:55;8.45;;;3.78;;
41568;SDS011;27283;52.504;13.358;2023-03-23T06:03:27;7.53;;;3.80;;
41568;SDS011;27283;52.504;13.358;2023-03-23T06:05:59;7.93;;;3.67;;
41568;SDS011;27283;52.504;13.358;2023-03-23T06:08:32;7.15;;;3.80;;
41568;SDS011;27283;52.504;13.358;2023-03-23T06:11:05;8.93;;;3.80;;
41568;SDS011;27283;52.504;13.358;2023-03-23T06:13:40;7.13;;;3.50;;
41568;SDS011;27283;52.504;13.358;2023-03-23T06:16:12;7.93;;;3.85;;
41568;SDS011;27283;52.504;13.358;2023-03-23T06:18:44;7.65;;;3.10;;
41568;SDS011;27283;52.504;13.358;2023-03-23T06:21:17;8.10;;;3.40;;
41568;SDS011;27283;52.504;13.358;2023-03-23T06:23:50;7.07;;;3.35;;
41568;SDS011;27283;52.504;13.358;2023-03-23T06:26:23;6.55;;;3.08;;
41568;SDS011;27283;52.504;13.358;2023-03-23T06:29:02;7.88;;;3.35;;
41568;SDS011;27283;52.504;13.358;2023-03-23T06:31:43;9.02;;;3.42;;
41568;SDS011;27283;52.504;13.358;2023-03-23T06:34:18;11.77;;;3.80;;
41568;SDS011;27283;52.504;13.358;2023-03-23T06:36:50;7.70;;;3.40;;
41568;SDS011;27283;52.504;13.358;2023-03-23T06:39:22;8.73;;;3.20;;
41568;SDS011;27283;52.504;13.358;2023-03-23T06:41:54;5.97;;;3.25;;
41568;SDS011;27283;52.504;13.358;2023-03-23T06:44:31;10.88;;;3.45;;
41568;SDS011;27283;52.504;13.358;2023-03-23T06:47:02;7.53;;;3.28;;
41568;SDS011;27283;52.504;13.358;2023-03-23T06:49:36;7.85;;;3.40;;
41568;SDS011;27283;52.504;13.358;2023-03-23T06:52:07;7.80;;;3.40;;
41568;SDS011;27283;52.504;13.358;2023-03-23T06:54:40;5.75;;;3.80;;
41568;SDS011;27283;52.504;13.358;2023-03-23T06:57:11;6.43;;;3.42;;
41568;SDS011;27283;52.504;13.358;2023-03-23T06:59:47;6.13;;;3.08;;
41568;SDS011;27283;52.504;13.358;2023-03-23T07:02:39;10.93;;;3.88;;
41568;SDS011;27283;52.504;13.358;2023-03-23T07:05:12;9.07;;;3.60;;
41568;SDS011;27283;52.504;13.358;2023-03-23T07:07:45;7.78;;;3.47;;
41568;SDS011;27283;52.504;13.358;2023-03-23T07:10:17;7.53;;;3.45;;
41568;SDS011;27283;52.504;13.358;2023-03-23T07:12:49;11.38;;;3.92;;
41568;SDS011;27283;52.504;13.358;2023-03-23T07:15:24;11.07;;;3.83;;
41568;SDS011;27283;52.504;13.358;2023-03-23T07:17:56;8.98;;;4.03;;
41568;SDS011;27283;52.504;13.358;2023-03-23T07:20:29;9.02;;;3.92;;
41568;SDS011;27283;52.504;13.358;2023-03-23T07:23:01;8.32;;;3.17;;
41568;SDS011;27283;52.504;13.358;2023-03-23T07:25:34;9.40;;;4.05;;
41568;SDS011;27283;52.504;13.358;2023-03-23T07:28:07;10.02;;;4.20;;
41568;SDS011;27283;52.504;13.358;2023-03-23T07:30:43;10.20;;;3.85;;
41568;SDS011;27283;52.504;13.358;2023-03-23T07:33:15;8.52;;;3.83;;
41568;SDS011;27283;52.504;13.358;2023-03-23T07:35:48;7.57;;;3.58;;
41568;SDS011;27283;52.504;13.358;2023-03-23T07:38:20;7.28;;;3.70;;
41568;SDS011;27283;52.504;13.358;2023-03-23T07:40:54;8.45;;;4.18;;
41568;SDS011;27283;52.504;13.358;2023-03-23T07:43:26;12.13;;;4.15;;
41568;SDS011;27283;52.504;13.358;2023-03-23T07:46:01;8.15;;;3.65;;
41568;SDS011;27283;52.504;13.358;2023-03-23T07:49:21;7.72;;;3.63;;
41568;SDS011;27283;52.504;13.358;2023-03-23T07:52:02;8.23;;;3.15;;
41568;SDS011;27283;52.504;13.358;2023-03-23T07:54:34;5.80;;;3.17;;
41568;SDS011;27283;52.504;13.358;2023-03-23T07:57:08;7.40;;;3.58;;
41568;SDS011;27283;52.504;13.358;2023-03-23T07:59:40;9.00;;;3.40;;
41568;SDS011;27283;52.504;13.358;2023-03-23T08:02:17;9.38;;;4.10;;
41568;SDS011;27283;52.504;13.358;2023-03-23T08:04:54;10.73;;;4.40;;
41568;SDS011;27283;52.504;13.358;2023-03-23T08:07:29;9.88;;;5.35;;
41568;SDS011;27283;52.504;13.358;2023-03-23T08:10:02;11.60;;;5.00;;
41568;SDS011;27283;52.504;13.358;2023-03-23T08:12:35;6.68;;;3.50;;
41568;SDS011;27283;52.504;13.358;2023-03-23T08:15:08;12.10;;;4.28;;
41568;SDS011;27283;52.504;13.358;2023-03-23T08:17:46;8.27;;;4.10;;
41568;SDS011;27283;52.504;13.358;2023-03-23T08:20:18;9.45;;;4.07;;
41568;SDS011;27283;52.504;13.358;2023-03-23T08:22:54;8.88;;;4.40;;
41568;SDS011;27283;52.504;13.358;2023-03-23T08:25:28;7.75;;;3.55;;
41568;SDS011;27283;52.504;13.358;2023-03-23T08:28:01;9.57;;;3.50;;
41568;SDS011;27283;52.504;13.358;2023-03-23T08:30:34;6.93;;;3.47;;
41568;SDS011;27283;52.504;13.358;2023-03-23T08:33:10;6.07;;;3.67;;
41568;SDS011;27283;52.504;13.358;2023-03-23T08:35:45;8.57;;;3.72;;
41568;SDS011;27283;52.504;13.358;2023-03-23T08:38:25;7.88;;;3.75;;
41568;SDS011;27283;52.504;13.358;2023-03-23T08:40:58;5.93;;;3.25;;
41568;SDS011;27283;52.504;13.358;2023-03-23T08:43:32;8.70;;;3.70;;
41568;SDS011;27283;52.504;13.358;2023-03-23T08:46:07;7.47;;;3.40;;
41568;SDS011;27283;52.504;13.358;2023-03-23T08:48:43;6.85;;;3.75;;
41568;SDS011;27283;52.504;13.358;2023-03-23T08:51:15;6.35;;;3.42;;
41568;SDS011;27283;52.504;13.358;2023-03-23T08:53:48;7.45;;;3.60;;
41568;SDS011;27283;52.504;13.358;2023-03-23T08:56:21;9.20;;;3.60;;
41568;SDS011;27283;52.504;13.358;2023-03-23T08:58:55;8.07;;;3.40;;
41568;SDS011;27283;52.504;13.358;2023-03-23T09:01:27;8.55;;;3.47;;
41568;SDS011;27283;52.504;13.358;2023-03-23T09:04:03;5.97;;;3.40;;
41568;SDS011;27283;52.504;13.358;2023-03-23T09:06:37;7.05;;;3.13;;
41568;SDS011;27283;52.504;13.358;2023-03-23T09:09:10;4.45;;;2.92;;
41568;SDS011;27283;52.504;13.358;2023-03-23T09:11:42;7.10;;;3.42;;
41568;SDS011;27283;52.504;13.358;2023-03-23T09:14:15;6.20;;;2.88;;
41568;SDS011;27283;52.504;13.358;2023-03-23T09:16:48;6.45;;;3.00;;
41568;SDS011;27283;52.504;13.358;2023-03-23T09:19:23;6.40;;;2.80;;
41568;SDS011;27283;52.504;13.358;2023-03-23T09:21:56;8.57;;;3.20;;
41568;SDS011;27283;52.504;13.358;2023-03-23T09:24:29;6.32;;;2.97;;
41568;SDS011;27283;52.504;13.358;2023-03-23T09:27:02;5.68;;;2.95;;
41568;SDS011;27283;52.504;13.358;2023-03-23T09:29:35;7.50;;;2.97;;
41568;SDS011;27283;52.504;13.358;2023-03-23T09:32:07;6.57;;;3.08;;
41568;SDS011;27283;52.504;13.358;2023-03-23T09:34:45;5.95;;;2.92;;
41568;SDS011;27283;52.504;13.358;2023-03-23T09:37:18;5.18;;;2.90;;
41568;SDS011;27283;52.504;13.358;2023-03-23T09:39:51;5.47;;;2.58;;
41568;SDS011;27283;52.504;13.358;2023-03-23T09:42:37;4.43;;;2.58;;
41568;SDS011;27283;52.504;13.358;2023-03-23T09:45:23;5.22;;;2.65;;
41568;SDS011;27283;52.504;13.358;2023-03-23T09:48:05;4.88;;;2.47;;
41568;SDS011;27283;52.504;13.358;2023-03-23T09:50:55;4.20;;;2.40;;
41568;SDS011;27283;52.504;13.358;2023-03-23T09:53:33;6.72;;;2.33;;
41568;SDS011;27283;52.504;13.358;2023-03-23T09:56:11;4.80;;;1.98;;
41568;SDS011;27283;52.504;13.358;2023-03-23T09:58:46;6.30;;;2.30;;
41568;SDS011;27283;52.504;13.358;2023-03-23T10:01:25;6.32;;;2.47;;
41568;SDS011;27283;52.504;13.358;2023-03-23T10:04:02;5.43;;;2.05;;
41568;SDS011;27283;52.504;13.358;2023-03-23T10:06:43;5.95;;;2.85;;
41568;SDS011;27283;52.504;13.358;2023-03-23T10:09:19;7.43;;;3.45;;
41568;SDS011;27283;52.504;13.358;2023-03-23T10:12:07;9.05;;;2.83;;
41568;SDS011;27283;52.504;13.358;2023-03-23T10:15:06;4.50;;;2.30;;
41568;SDS011;27283;52.504;13.358;2023-03-23T10:17:49;4.45;;;1.95;;
41568;SDS011;27283;52.504;13.358;2023-03-23T10:20:43;3.22;;;2.13;;
41568;SDS011;27283;52.504;13.358;2023-03-23T10:23:35;3.72;;;2.20;;
41568;SDS011;27283;52.504;13.358;2023-03-23T10:26:32;3.67;;;1.90;;
41568;SDS011;27283;52.504;13.358;2023-03-23T10:29:16;4.25;;;2.00;;
41568;SDS011;27283;52.504;13.358;2023-03-23T10:31:55;4.03;;;2.05;;
41568;SDS011;27283;52.504;13.358;2023-03-23T10:34:43;2.83;;;1.80;;
41568;SDS011;27283;52.504;13.358;2023-03-23T10:37:27;3.55;;;1.60;;
41568;SDS011;27283;52.504;13.358;2023-03-23T10:40:18;4.72;;;1.90;;
41568;SDS011;27283;52.504;13.358;2023-03-23T10:43:03;3.00;;;1.98;;
41568;SDS011;27283;52.504;13.358;2023-03-23T10:45:41;2.80;;;1.60;;
41568;SDS011;27283;52.504;13.358;2023-03-23T10:48:35;2.58;;;1.70;;
41568;SDS011;27283;52.504;13.358;2023-03-23T10:51:19;3.55;;;2.00;;
41568;SDS011;27283;52.504;13.358;2023-03-23T10:54:05;4.05;;;2.22;;
41568;SDS011;27283;52.504;13.358;2023-03-23T10:56:47;3.13;;;1.73;;
41568;SDS011;27283;52.504;13.358;2023-03-23T10:59:32;2.80;;;1.60;;
41568;SDS011;27283;52.504;13.358;2023-03-23T11:02:10;2.70;;;1.45;;
41568;SDS011;27283;52.504;13.358;2023-03-23T11:04:57;3.13;;;1.88;;
41568;SDS011;27283;52.504;13.358;2023-03-23T11:07:52;3.72;;;1.80;;
41568;SDS011;27283;52.504;13.358;2023-03-23T11:10:36;4.50;;;1.88;;
41568;SDS011;27283;52.504;13.358;2023-03-23T11:13:19;3.67;;;1.75;;
41568;SDS011;27283;52.504;13.358;2023-03-23T11:15:54;6.47;;;2.05;;
41568;SDS011;27283;52.504;13.358;2023-03-23T11:18:42;3.42;;;1.75;;
41568;SDS011;27283;52.504;13.358;2023-03-23T11:21:27;4.28;;;1.80;;
41568;SDS011;27283;52.504;13.358;2023-03-23T11:23:59;4.90;;;1.77;;
41568;SDS011;27283;52.504;13.358;2023-03-23T11:26:45;3.83;;;2.05;;
41568;SDS011;27283;52.504;13.358;2023-03-23T11:29:31;6.07;;;2.10;;
41568;SDS011;27283;52.504;13.358;2023-03-23T11:32:06;2.60;;;1.70;;
41568;SDS011;27283;52.504;13.358;2023-03-23T11:34:44;4.22;;;2.00;;
41568;SDS011;27283;52.504;13.358;2023-03-23T11:37:20;4.10;;;1.98;;
41568;SDS011;27283;52.504;13.358;2023-03-23T11:39:59;3.55;;;1.92;;
41568;SDS011;27283;52.504;13.358;2023-03-23T11:42:38;4.80;;;1.90;;
41568;SDS011;27283;52.504;13.358;2023-03-23T11:45:20;3.50;;;1.58;;
41568;SDS011;27283;52.504;13.358;2023-03-23T11:47:56;3.35;;;1.95;;
41568;SDS011;27283;52.504;13.358;2023-03-23T11:50:39;5.90;;;2.30;;
41568;SDS011;27283;52.504;13.358;2023-03-23T11:53:31;4.57;;;2.20;;
41568;SDS011;27283;52.504;13.358;2023-03-23T11:56:15;3.75;;;2.00;;
41568;SDS011;27283;52.504;13.358;2023-03-23T11:58:56;5.32;;;2.10;;
41568;SDS011;27283;52.504;13.358;2023-03-23T12:01:46;4.28;;;1.90;;
41568;SDS011;27283;52.504;13.358;2023-03-23T12:04:33;4.70;;;2.00;;
41568;SDS011;27283;52.504;13.358;2023-03-23T12:07:17;4.78;;;2.28;;
41568;SDS011;27283;52.504;13.358;2023-03-23T12:10:13;3.78;;;1.80;;
41568;SDS011;27283;52.504;13.358;2023-03-23T12:13:21;5.05;;;1.88;;
41568;SDS011;27283;52.504;13.358;2023-03-23T12:16:09;4.03;;;1.90;;
41568;SDS011;27283;52.504;13.358;2023-03-23T12:18:54;3.30;;;1.75;;
41568;SDS011;27283;52.504;13.358;2023-03-23T12:21:36;4.15;;;1.88;;
41568;SDS011;27283;52.504;13.358;2023-03-23T12:24:24;3.88;;;1.73;;
41568;SDS011;27283;52.504;13.358;2023-03-23T12:27:09;3.03;;;1.70;;
41568;SDS011;27283;52.504;13.358;2023-03-23T12:29:55;3.95;;;1.90;;
41568;SDS011;27283;52.504;13.358;2023-03-23T12:32:42;4.20;;;1.70;;
41568;SDS011;27283;52.504;13.358;2023-03-23T12:35:38;5.60;;;2.08;;
41568;SDS011;27283;52.504;13.358;2023-03-23T12:41:22;10.35;;;4.32;;
41568;SDS011;27283;52.504;13.358;2023-03-23T12:44:01;7.10;;;2.00;;
41568;SDS011;27283;52.504;13.358;2023-03-23T12:46:43;4.07;;;2.00;;
41568;SDS011;27283;52.504;13.358;2023-03-23T12:49:27;3.33;;;1.73;;
41568;SDS011;27283;52.504;13.358;2023-03-23T12:52:11;5.30;;;1.92;;
41568;SDS011;27283;52.504;13.358;2023-03-23T12:54:51;4.38;;;2.10;;
41568;SDS011;27283;52.504;13.358;2023-03-23T12:57:32;3.78;;;2.00;;
41568;SDS011;27283;52.504;13.358;2023-03-23T13:00:12;4.18;;;2.03;;
41568;SDS011;27283;52.504;13.358;2023-03-23T13:02:53;5.78;;;1.80;;
41568;SDS011;27283;52.504;13.358;2023-03-23T13:05:35;3.95;;;2.00;;
41568;SDS011;27283;52.504;13.358;2023-03-23T13:08:18;4.57;;;1.80;;
41568;SDS011;27283;52.504;13.358;2023-03-23T13:10:54;4.47;;;2.05;;
41568;SDS011;27283;52.504;13.358;2023-03-23T13:13:45;5.43;;;1.92;;
41568;SDS011;27283;52.504;13.358;2023-03-23T13:16:25;4.25;;;1.77;;
41568;SDS011;27283;52.504;13.358;2023-03-23T13:19:07;5.10;;;1.80;;
41568;SDS011;27283;52.504;13.358;2023-03-23T13:21:49;4.18;;;1.88;;
41568;SDS011;27283;52.504;13.358;2023-03-23T13:24:49;6.88;;;2.15;;
41568;SDS011;27283;52.504;13.358;2023-03-23T13:27:25;4.85;;;1.90;;
41568;SDS011;27283;52.504;13.358;2023-03-23T13:29:59;6.53;;;2.10;;
41568;SDS011;27283;52.504;13.358;2023-03-23T13:32:33;4.88;;;2.15;;
41568;SDS011;27283;52.504;13.358;2023-03-23T13:35:14;6.72;;;2.08;;
41568;SDS011;27283;52.504;13.358;2023-03-23T13:37:50;3.10;;;1.58;;
41568;SDS011;27283;52.504;13.358;2023-03-23T13:40:27;3.58;;;1.98;;
41568;SDS011;27283;52.504;13.358;2023-03-23T13:43:02;4.25;;;1.63;;
41568;SDS011;27283;52.504;13.358;2023-03-23T13:45:37;7.13;;;2.40;;
41568;SDS011;27283;52.504;13.358;2023-03-23T13:48:19;6.13;;;2.42;;
41568;SDS011;27283;52.504;13.358;2023-03-23T13:50:54;5.93;;;2.45;;
41568;SDS011;27283;52.504;13.358;2023-03-23T13:53:28;5.55;;;1.95;;
41568;SDS011;27283;52.504;13.358;2023-03-23T13:56:17;6.18;;;2.03;;
41568;SDS011;27283;52.504;13.358;2023-03-23T13:58:52;5.55;;;1.85;;
41568;SDS011;27283;52.504;13.358;2023-03-23T14:01:37;9.00;;;2.30;;
41568;SDS011;27283;52.504;13.358;2023-03-23T14:04:16;5.13;;;2.00;;
41568;SDS011;27283;52.504;13.358;2023-03-23T14:07:18;6.75;;;1.95;;
41568;SDS011;27283;52.504;13.358;2023-03-23T14:09:52;4.65;;;1.60;;
41568;SDS011;27283;52.504;13.358;2023-03-23T14:12:28;7.60;;;2.00;;
41568;SDS011;27283;52.504;13.358;2023-03-23T14:15:03;6.80;;;2.00;;
41568;SDS011;27283;52.504;13.358;2023-03-23T14:17:39;5.25;;;2.13;;
41568;SDS011;27283;52.504;13.358;2023-03-23T14:20:30;9.38;;;2.00;;
41568;SDS011;27283;52.504;13.358;2023-03-23T14:23:05;6.10;;;1.60;;
41568;SDS011;27283;52.504;13.358;2023-03-23T14:25:55;6.15;;;2.38;;
41568;SDS011;27283;52.504;13.358;2023-03-23T14:28:40;4.13;;;1.77;;
41568;SDS011;27283;52.504;13.358;2023-03-23T14:31:15;4.43;;;1.70;;
41568;SDS011;27283;52.504;13.358;2023-03-23T14:33:51;4.80;;;2.20;;
41568;SDS011;27283;52.504;13.358;2023-03-23T14:36:26;4.15;;;2.28;;
41568;SDS011;27283;52.504;13.358;2023-03-23T14:39:02;4.93;;;1.80;;
41568;SDS011;27283;52.504;13.358;2023-03-23T14:41:38;6.18;;;1.80;;
41568;SDS011;27283;52.504;13.358;2023-03-23T14:44:16;5.00;;;1.65;;
41568;SDS011;27283;52.504;13.358;2023-03-23T14:46:53;3.83;;;1.67;;
41568;SDS011;27283;52.504;13.358;2023-03-23T14:49:28;3.70;;;1.80;;
41568;SDS011;27283;52.504;13.358;2023-03-23T14:52:09;7.00;;;2.30;;
41568;SDS011;27283;52.504;13.358;2023-03-23T14:54:44;8.70;;;2.78;;
41568;SDS011;27283;52.504;13.358;2023-03-23T14:57:17;5.32;;;2.80;;
41568;SDS011;27283;52.504;13.358;2023-03-23T14:59:55;5.05;;;1.70;;
41568;SDS011;27283;52.504;13.358;2023-03-23T15:02:35;5.03;;;1.90;;
41568;SDS011;27283;52.504;13.358;2023-03-23T15:05:16;3.00;;;1.60;;
41568;SDS011;27283;52.504;13.358;2023-03-23T15:07:59;6.18;;;2.00;;
41568;SDS011;27283;52.504;13.358;2023-03-23T15:10:45;5.50;;;2.13;;
41568;SDS011;27283;52.504;13.358;2023-03-23T15:13:27;5.88;;;1.92;;
41568;SDS011;27283;52.504;13.358;2023-03-23T15:16:11;4.05;;;1.88;;
41568;SDS011;27283;52.504;13.358;2023-03-23T15:18:48;7.60;;;2.08;;
41568;SDS011;27283;52.504;13.358;2023-03-23T15:21:28;7.53;;;2.17;;
41568;SDS011;27283;52.504;13.358;2023-03-23T15:24:17;6.95;;;1.75;;
41568;SDS011;27283;52.504;13.358;2023-03-23T15:27:02;4.05;;;1.77;;
41568;SDS011;27283;52.504;13.358;2023-03-23T15:29:49;5.03;;;1.80;;
41568;SDS011;27283;52.504;13.358;2023-03-23T15:32:27;3.47;;;2.08;;
41568;SDS011;27283;52.504;13.358;2023-03-23T15:35:03;4.05;;;1.70;;
41568;SDS011;27283;52.504;13.358;2023-03-23T15:37:45;4.80;;;1.80;;
41568;SDS011;27283;52.504;13.358;2023-03-23T15:40:22;6.15;;;1.85;;
41568;SDS011;27283;52.504;13.358;2023-03-23T15:45:53;5.43;;;1.65;;
41568;SDS011;27283;52.504;13.358;2023-03-23T15:48:32;4.65;;;1.60;;
41568;SDS011;27283;52.504;13.358;2023-03-23T15:51:18;5.93;;;1.70;;